Search for airport 
image banner adimage banner adimage banner ad
image banner ad

50CN - Palmdale Medical Center

Located in Palmdale, United States

ICAO - 50CN, IATA -

Data provided by Airmate  

General information

Coordinates: N34°34'56" W118°8'42"
Elevation is 2743 feet MSL.
 
View others Airports in California

Operational data

Special qualification required
Current time UTC:
Current local time:
Weather at : KPMD - Palmdale Usaf Plant 42 ( 8 km )
METAR: KPMD 292153Z AUTO 23019KT 10SM FEW120 39/07 A2993 RMK AO2 SLP097 T03890067
TAF: KPMD 291736Z 2918/3018 00000KT P6SM SKC FM291900 23010KT P6SM SKC FM292300 23015G23KT P6SM SKC FM300300 23012KT P6SM SKC FM300800 21007KT P6SM SKC
View NOTAMs / SUP AIP / TFR affecting this airport [VIEW]
Communications frequencies: [VIEW]

Runways:

Airport contact information

Address: Palmdale United States

Satellite view of 50CN